createdAt,value
2022-11-29T00:01:24.904Z,2.35
2022-11-29T00:03:52.587Z,2.40
2022-11-29T00:06:27.301Z,2.72
2022-11-29T00:08:59.992Z,2.60
2022-11-29T00:11:49.056Z,2.03
2022-11-29T00:14:19.673Z,2.33
2022-11-29T00:16:52.047Z,2.20
2022-11-29T00:19:19.194Z,2.42
2022-11-29T00:21:46.289Z,2.10
2022-11-29T00:24:13.538Z,1.90
2022-11-29T00:26:40.594Z,2.17
2022-11-29T00:29:07.663Z,2.58
2022-11-29T00:31:34.772Z,2.08
2022-11-29T00:34:03.342Z,1.92
2022-11-29T00:36:30.701Z,3.05
2022-11-29T00:38:57.717Z,2.03
2022-11-29T00:41:25.182Z,1.90
2022-11-29T00:43:52.123Z,2.22
2022-11-29T00:46:19.248Z,2.17
2022-11-29T00:48:46.233Z,1.90
2022-11-29T00:51:13.230Z,1.95
2022-11-29T00:53:40.321Z,2.03
2022-11-29T00:56:07.646Z,2.22
2022-11-29T00:58:36.006Z,1.85
2022-11-29T01:01:03.008Z,2.40
2022-11-29T01:03:29.996Z,2.15
2022-11-29T01:06:06.217Z,1.90
2022-11-29T01:08:33.420Z,1.83
2022-11-29T01:11:08.426Z,2.20
2022-11-29T01:13:35.841Z,1.88
2022-11-29T01:16:04.021Z,2.00
2022-11-29T01:18:31.599Z,2.00
2022-11-29T01:21:13.511Z,2.20
2022-11-29T01:23:41.509Z,2.15
2022-11-29T01:26:17.353Z,2.00
2022-11-29T01:28:47.451Z,2.50
2022-11-29T01:31:26.549Z,1.90
2022-11-29T01:33:55.730Z,2.10
2022-11-29T01:36:23.719Z,3.13
2022-11-29T01:38:51.071Z,2.00
2022-11-29T01:41:21.664Z,2.33
2022-11-29T01:44:26.663Z,2.30
2022-11-29T01:46:54.490Z,2.15
2022-11-29T01:49:29.038Z,2.15
2022-11-29T01:52:20.208Z,2.20
2022-11-29T01:54:50.621Z,2.30
2022-11-29T01:57:18.679Z,2.20
2022-11-29T01:59:52.458Z,2.63
2022-11-29T02:02:27.190Z,2.58
2022-11-29T02:04:59.226Z,2.30
2022-11-29T02:07:26.448Z,2.53
2022-11-29T02:09:53.391Z,2.13
2022-11-29T02:12:20.355Z,2.22
2022-11-29T02:15:09.016Z,1.88
2022-11-29T02:17:55.031Z,1.70
2022-11-29T02:20:56.103Z,1.83
2022-11-29T02:23:45.039Z,2.08
2022-11-29T02:26:14.730Z,2.00
2022-11-29T02:29:09.454Z,2.03
2022-11-29T02:32:00.639Z,2.30
2022-11-29T02:34:36.525Z,2.20
2022-11-29T02:37:12.518Z,1.98
2022-11-29T02:39:51.442Z,2.45
2022-11-29T02:42:55.713Z,3.00
2022-11-29T02:45:46.396Z,1.90
2022-11-29T02:48:42.862Z,2.08
2022-11-29T02:51:52.048Z,2.67
2022-11-29T02:54:36.703Z,2.13
2022-11-29T02:57:31.245Z,2.30
2022-11-29T03:00:18.180Z,2.10
2022-11-29T03:02:51.306Z,2.53
2022-11-29T03:05:42.016Z,2.10
2022-11-29T03:08:37.742Z,2.38
2022-11-29T03:11:07.498Z,2.95
2022-11-29T03:13:58.847Z,2.17
2022-11-29T03:16:47.707Z,2.65
2022-11-29T03:19:31.096Z,2.13
2022-11-29T03:22:36.558Z,2.55
2022-11-29T03:25:12.412Z,2.28
2022-11-29T03:28:01.752Z,2.05
2022-11-29T03:30:31.590Z,2.72
2022-11-29T03:33:28.063Z,2.05
2022-11-29T03:36:00.756Z,2.40
2022-11-29T03:38:35.021Z,2.20
2022-11-29T03:41:50.179Z,2.17
2022-11-29T03:44:18.634Z,1.88
2022-11-29T03:46:54.431Z,1.85
2022-11-29T03:49:29.388Z,1.95
2022-11-29T03:51:56.305Z,2.00
2022-11-29T03:54:47.009Z,2.00
2022-11-29T03:57:20.773Z,3.58
2022-11-29T03:59:58.525Z,1.85
2022-11-29T04:03:03.860Z,2.25
2022-11-29T04:05:48.547Z,3.08
2022-11-29T04:09:17.239Z,2.40
2022-11-29T04:12:08.439Z,2.60
2022-11-29T04:15:06.633Z,2.13
2022-11-29T04:18:10.955Z,2.10
2022-11-29T04:21:14.841Z,2.20
2022-11-29T04:24:00.759Z,2.30
2022-11-29T04:26:58.110Z,2.25
2022-11-29T04:29:44.280Z,2.20
2022-11-29T04:32:20.425Z,2.45
2022-11-29T04:34:56.323Z,2.42
2022-11-29T04:37:26.032Z,1.95
2022-11-29T04:40:02.094Z,2.40
2022-11-29T04:42:54.098Z,2.38
2022-11-29T04:45:39.156Z,2.38
2022-11-29T04:48:36.897Z,2.30
2022-11-29T04:51:19.974Z,2.00
2022-11-29T04:54:04.592Z,2.33
2022-11-29T04:56:42.855Z,4.43
2022-11-29T04:59:26.701Z,2.28
2022-11-29T05:02:05.702Z,2.50
2022-11-29T05:04:51.972Z,2.78
2022-11-29T05:07:56.172Z,1.95
2022-11-29T05:10:50.577Z,1.98
2022-11-29T05:13:42.559Z,2.65
2022-11-29T05:16:31.580Z,2.45
2022-11-29T05:19:01.292Z,2.33
2022-11-29T05:22:10.102Z,2.38
2022-11-29T05:25:11.031Z,2.10
2022-11-29T05:27:58.763Z,2.53
2022-11-29T05:30:42.395Z,2.50
2022-11-29T05:33:27.681Z,20.55
2022-11-29T05:36:22.745Z,104.53
2022-11-29T05:39:20.564Z,38.92
2022-11-29T05:42:09.590Z,24.10
2022-11-29T05:44:48.539Z,14.82
2022-11-29T05:47:28.219Z,6.88
2022-11-29T05:50:21.442Z,3.70
2022-11-29T05:53:00.382Z,7.45
2022-11-29T05:55:42.421Z,5.13
2022-11-29T05:58:37.266Z,3.90
2022-11-29T06:01:38.126Z,3.90
2022-11-29T06:04:17.845Z,3.22
2022-11-29T06:07:03.174Z,2.60
2022-11-29T06:09:37.807Z,2.85
2022-11-29T06:12:15.839Z,2.38
2022-11-29T06:15:11.685Z,2.97
2022-11-29T06:17:57.119Z,3.78
2022-11-29T06:20:42.287Z,3.03
2022-11-29T06:23:15.167Z,2.65
2022-11-29T06:28:58.217Z,2.20
2022-11-29T06:31:54.659Z,2.40
2022-11-29T06:34:46.897Z,3.10
2022-11-29T06:37:20.329Z,2.70
2022-11-29T06:39:47.623Z,2.40
2022-11-29T06:42:14.610Z,2.80
2022-11-29T06:44:42.874Z,2.53
2022-11-29T06:47:24.381Z,2.40
2022-11-29T06:50:03.428Z,2.60
2022-11-29T06:52:49.073Z,2.60
2022-11-29T06:55:21.841Z,3.38
2022-11-29T06:58:20.860Z,2.42
2022-11-29T07:01:15.182Z,2.58
2022-11-29T07:04:03.053Z,2.53
2022-11-29T07:06:31.814Z,2.90
2022-11-29T07:09:14.752Z,2.60
2022-11-29T07:11:42.863Z,2.83
2022-11-29T07:14:10.038Z,3.10
2022-11-29T07:16:41.746Z,5.97
2022-11-29T07:19:46.193Z,3.22
2022-11-29T07:22:37.810Z,2.30
2022-11-29T07:25:23.322Z,2.45
2022-11-29T07:28:13.684Z,2.40
2022-11-29T07:30:40.577Z,2.25
2022-11-29T07:33:35.785Z,2.33
2022-11-29T07:36:29.350Z,2.25
2022-11-29T07:39:34.452Z,2.47
2022-11-29T07:42:42.940Z,8.88
2022-11-29T07:45:18.762Z,12.10
2022-11-29T07:47:46.414Z,12.15
2022-11-29T07:50:13.754Z,15.02
2022-11-29T07:52:40.729Z,7.93
2022-11-29T07:55:17.031Z,6.43
2022-11-29T07:57:45.612Z,4.03
2022-11-29T08:00:13.200Z,3.00
2022-11-29T08:02:41.054Z,3.53
2022-11-29T08:05:08.909Z,2.42
2022-11-29T08:07:37.391Z,2.33
2022-11-29T08:10:06.759Z,2.00
2022-11-29T08:12:33.817Z,2.38
2022-11-29T08:15:01.620Z,2.30
2022-11-29T08:17:28.693Z,2.30
2022-11-29T08:19:58.878Z,2.10
2022-11-29T08:22:28.186Z,2.10
2022-11-29T08:24:56.222Z,20.90
2022-11-29T08:27:23.203Z,8.85
2022-11-29T08:29:50.116Z,7.50
2022-11-29T08:32:17.187Z,11.18
2022-11-29T08:34:44.669Z,17.33
2022-11-29T08:37:11.773Z,15.85
2022-11-29T08:39:38.714Z,12.85
2022-11-29T08:42:05.841Z,8.40
2022-11-29T08:44:32.761Z,6.07
2022-11-29T08:47:18.285Z,4.75
2022-11-29T08:50:03.426Z,5.85
2022-11-29T08:52:55.632Z,7.25
2022-11-29T08:55:26.333Z,13.45
2022-11-29T08:57:54.852Z,18.15
2022-11-29T09:00:25.093Z,16.83
2022-11-29T09:02:53.037Z,14.05
2022-11-29T09:05:22.511Z,11.73
2022-11-29T09:07:50.252Z,11.27
2022-11-29T09:10:18.275Z,9.57
2022-11-29T09:12:47.438Z,9.55
2022-11-29T09:15:19.750Z,9.35
2022-11-29T09:17:53.917Z,9.23
2022-11-29T09:20:25.395Z,8.80
2022-11-29T09:23:01.151Z,6.95
2022-11-29T09:25:30.427Z,5.90
2022-11-29T09:28:04.458Z,5.35
2022-11-29T09:30:33.180Z,6.80
2022-11-29T09:33:05.467Z,4.68
2022-11-29T09:35:37.539Z,4.78
2022-11-29T09:38:05.890Z,4.13
2022-11-29T09:40:56.849Z,4.10
2022-11-29T09:43:40.102Z,3.88
2022-11-29T09:46:37.144Z,4.28
2022-11-29T09:49:37.606Z,4.40
2022-11-29T09:52:39.605Z,7.30
2022-11-29T09:55:28.256Z,5.35
2022-11-29T09:58:02.087Z,4.90
2022-11-29T10:00:42.038Z,4.53
2022-11-29T10:03:28.479Z,4.22
2022-11-29T10:06:11.439Z,4.60
2022-11-29T10:09:09.735Z,3.97
2022-11-29T10:12:00.099Z,3.63
2022-11-29T10:14:52.973Z,3.58
2022-11-29T10:17:49.978Z,3.67
2022-11-29T10:20:27.985Z,4.00
2022-11-29T10:23:01.369Z,4.88
2022-11-29T10:28:27.194Z,5.82
2022-11-29T10:30:55.974Z,4.90
2022-11-29T10:33:28.479Z,4.90
2022-11-29T10:36:02.390Z,4.75
2022-11-29T10:38:31.134Z,4.30
2022-11-29T10:41:12.018Z,4.25
2022-11-29T10:43:39.327Z,7.65
2022-11-29T10:46:14.659Z,4.75
2022-11-29T10:48:42.160Z,4.18
2022-11-29T10:51:17.395Z,4.13
2022-11-29T10:53:45.833Z,4.43
2022-11-29T10:56:31.184Z,3.60
2022-11-29T10:59:03.194Z,3.97
2022-11-29T11:01:33.613Z,4.40
2022-11-29T11:04:04.280Z,4.97
2022-11-29T11:07:06.054Z,4.35
2022-11-29T11:09:35.732Z,4.60
2022-11-29T11:12:33.389Z,4.13
2022-11-29T11:15:24.898Z,5.70
2022-11-29T11:17:58.453Z,4.55
2022-11-29T11:20:28.730Z,4.13
2022-11-29T11:23:00.777Z,5.75
2022-11-29T11:25:35.640Z,4.27
2022-11-29T11:28:20.444Z,4.97
2022-11-29T11:30:54.399Z,5.43
2022-11-29T11:33:26.381Z,4.85
2022-11-29T11:36:11.810Z,5.27
2022-11-29T11:38:50.540Z,4.47
2022-11-29T11:41:49.404Z,5.22
2022-11-29T11:47:20.655Z,4.82
2022-11-29T11:49:54.440Z,6.78
2022-11-29T11:52:29.069Z,4.20
2022-11-29T11:55:00.783Z,4.85
2022-11-29T11:57:31.599Z,5.80
2022-11-29T12:00:05.202Z,3.50
2022-11-29T12:02:44.276Z,3.60
2022-11-29T12:10:39.807Z,2.70
2022-11-29T12:13:17.619Z,4.10
2022-11-29T12:15:47.322Z,3.30
2022-11-29T12:18:38.001Z,3.15
2022-11-29T12:21:23.418Z,3.50
2022-11-29T12:24:27.625Z,3.20
2022-11-29T12:26:59.196Z,2.80
2022-11-29T12:29:30.032Z,4.65
2022-11-29T12:32:19.429Z,3.10
2022-11-29T12:35:00.847Z,3.08
2022-11-29T12:37:46.868Z,2.10
2022-11-29T12:40:38.275Z,2.28
2022-11-29T12:43:28.302Z,2.08
2022-11-29T12:46:05.737Z,2.60
2022-11-29T12:48:53.155Z,2.50
2022-11-29T12:51:27.941Z,2.45
2022-11-29T12:54:19.726Z,2.72
2022-11-29T12:56:58.517Z,3.53
2022-11-29T12:59:53.208Z,1.75
2022-11-29T13:02:22.983Z,3.08
2022-11-29T13:05:00.036Z,2.83
2022-11-29T13:07:57.220Z,2.55
2022-11-29T13:10:39.453Z,3.47
2022-11-29T13:13:41.762Z,3.67
2022-11-29T13:16:39.060Z,3.75
2022-11-29T13:19:24.571Z,3.92
2022-11-29T13:22:13.060Z,5.03
2022-11-29T13:24:52.069Z,4.90
2022-11-29T13:27:39.863Z,5.78
2022-11-29T13:30:07.417Z,5.55
2022-11-29T13:32:48.091Z,6.22
2022-11-29T13:35:15.041Z,5.55
2022-11-29T13:37:58.189Z,5.68
2022-11-29T13:43:18.783Z,5.38
2022-11-29T13:46:16.751Z,5.82
2022-11-29T13:48:48.843Z,5.00
2022-11-29T13:51:42.970Z,7.00
2022-11-29T13:54:27.288Z,4.85
2022-11-29T13:57:10.321Z,8.07
2022-11-29T13:59:44.275Z,9.18
2022-11-29T14:02:30.025Z,9.23
2022-11-29T14:04:57.566Z,7.72
2022-11-29T14:07:24.584Z,7.70
2022-11-29T14:10:03.407Z,9.20
2022-11-29T14:12:31.287Z,7.20
2022-11-29T14:15:13.591Z,10.73
2022-11-29T14:17:57.172Z,6.18
2022-11-29T14:20:24.949Z,5.55
2022-11-29T14:23:10.032Z,6.50
2022-11-29T14:26:03.054Z,5.05
2022-11-29T14:28:40.861Z,6.22
2022-11-29T14:31:09.529Z,7.68
2022-11-29T14:33:47.462Z,6.93
2022-11-29T14:36:59.530Z,6.50
2022-11-29T14:39:48.075Z,8.90
2022-11-29T14:42:18.698Z,9.18
2022-11-29T14:44:56.088Z,7.15
2022-11-29T14:47:47.029Z,6.68
2022-11-29T14:50:33.469Z,5.53
2022-11-29T14:53:01.049Z,6.45
2022-11-29T14:55:29.785Z,5.40
2022-11-29T14:58:06.255Z,5.32
2022-11-29T15:00:38.211Z,5.20
2022-11-29T15:03:13.367Z,5.40
2022-11-29T15:05:46.173Z,5.80
2022-11-29T15:08:28.367Z,5.60
2022-11-29T15:11:04.424Z,5.23
2022-11-29T15:13:34.820Z,5.55
2022-11-29T15:16:29.544Z,6.32
2022-11-29T15:19:15.416Z,6.38
2022-11-29T15:22:07.484Z,6.60
2022-11-29T15:24:54.915Z,6.80
2022-11-29T15:27:22.919Z,7.57
2022-11-29T15:29:50.520Z,6.65
2022-11-29T15:32:32.775Z,7.43
2022-11-29T15:35:00.319Z,6.97
2022-11-29T15:37:38.971Z,7.68
2022-11-29T15:40:14.923Z,7.18
2022-11-29T15:42:55.541Z,7.03
2022-11-29T15:45:37.763Z,7.95
2022-11-29T15:48:32.179Z,8.70
2022-11-29T15:51:18.056Z,7.47
2022-11-29T15:54:13.175Z,7.85
2022-11-29T15:56:56.391Z,8.73
2022-11-29T15:59:35.439Z,8.75
2022-11-29T16:02:24.932Z,11.02
2022-11-29T16:04:55.952Z,9.07
2022-11-29T16:07:26.033Z,11.00
2022-11-29T16:10:01.720Z,11.35
2022-11-29T16:12:28.835Z,10.98
2022-11-29T16:14:58.126Z,11.85
2022-11-29T16:17:27.819Z,11.27
2022-11-29T16:20:23.433Z,11.23
2022-11-29T16:23:14.994Z,13.98
2022-11-29T16:25:50.350Z,13.50
2022-11-29T16:28:18.552Z,11.77
2022-11-29T16:30:45.766Z,10.98
2022-11-29T16:33:24.800Z,12.50
2022-11-29T16:36:02.576Z,13.10
2022-11-29T16:38:29.931Z,12.70
2022-11-29T16:41:04.052Z,13.93
2022-11-29T16:43:55.508Z,14.90
2022-11-29T16:46:22.700Z,12.93
2022-11-29T16:48:50.938Z,12.60
2022-11-29T16:51:37.729Z,12.48
2022-11-29T16:54:25.582Z,12.23
2022-11-29T16:56:54.493Z,22.73
2022-11-29T16:59:27.365Z,13.90
2022-11-29T17:01:56.388Z,14.70
2022-11-29T17:04:25.047Z,16.70
2022-11-29T17:06:54.338Z,13.75
2022-11-29T17:09:27.969Z,13.93
2022-11-29T17:11:56.346Z,14.30
2022-11-29T17:14:23.428Z,13.82
2022-11-29T17:16:52.027Z,15.05
2022-11-29T17:19:25.557Z,14.77
2022-11-29T17:21:53.529Z,14.90
2022-11-29T17:24:22.223Z,15.43
2022-11-29T17:26:49.788Z,13.27
2022-11-29T17:29:17.680Z,17.38
2022-11-29T17:31:46.391Z,16.65
2022-11-29T17:34:13.816Z,18.35
2022-11-29T17:36:41.032Z,16.65
2022-11-29T17:39:08.611Z,15.68
2022-11-29T17:41:36.111Z,15.73
2022-11-29T17:44:03.470Z,16.00
2022-11-29T17:46:32.542Z,16.77
2022-11-29T17:49:01.878Z,18.17
2022-11-29T17:51:51.044Z,17.92
2022-11-29T17:54:16.506Z,17.40
2022-11-29T17:56:43.441Z,16.15
2022-11-29T17:59:10.390Z,18.75
2022-11-29T18:01:37.570Z,18.38
2022-11-29T18:04:06.353Z,16.98
2022-11-29T18:06:38.508Z,17.00
2022-11-29T18:09:07.668Z,15.73
2022-11-29T18:11:48.006Z,16.40
2022-11-29T18:14:28.405Z,15.38
2022-11-29T18:16:55.600Z,13.75
2022-11-29T18:19:26.005Z,14.25
2022-11-29T18:21:53.011Z,14.45
2022-11-29T18:24:20.061Z,15.15
2022-11-29T18:26:47.519Z,15.00
2022-11-29T18:29:17.648Z,15.75
2022-11-29T18:31:46.245Z,16.02
2022-11-29T18:34:14.281Z,16.33
2022-11-29T18:36:44.421Z,17.35
2022-11-29T18:39:17.924Z,16.90
2022-11-29T18:41:48.617Z,17.60
2022-11-29T18:44:17.996Z,16.70
2022-11-29T18:46:46.665Z,16.63
2022-11-29T18:49:16.051Z,16.20
2022-11-29T18:51:44.997Z,17.10
2022-11-29T18:54:13.060Z,14.50
2022-11-29T18:56:40.837Z,14.90
2022-11-29T18:59:11.322Z,17.38
2022-11-29T19:01:42.537Z,16.90
2022-11-29T19:04:15.625Z,15.82
2022-11-29T19:06:43.511Z,15.25
2022-11-29T19:09:16.833Z,16.05
2022-11-29T19:11:43.987Z,15.80
2022-11-29T19:14:12.806Z,16.08
2022-11-29T19:16:46.178Z,15.38
2022-11-29T19:19:13.602Z,16.02
2022-11-29T19:21:41.132Z,16.05
2022-11-29T19:24:15.966Z,16.17
2022-11-29T19:26:45.002Z,15.98
2022-11-29T19:29:16.064Z,16.58
2022-11-29T19:31:43.674Z,16.23
2022-11-29T19:34:11.637Z,17.60
2022-11-29T19:36:43.394Z,17.63
2022-11-29T19:39:13.227Z,19.23
2022-11-29T19:41:43.202Z,18.15
2022-11-29T19:44:10.781Z,16.77
2022-11-29T19:46:46.048Z,15.43
2022-11-29T19:49:13.313Z,15.38
2022-11-29T19:51:40.965Z,17.45
2022-11-29T19:54:09.856Z,19.00
2022-11-29T19:56:38.187Z,18.50
2022-11-29T19:59:07.650Z,18.95
2022-11-29T20:01:40.948Z,19.25
2022-11-29T20:04:10.280Z,18.30
2022-11-29T20:06:37.544Z,16.67
2022-11-29T20:09:05.004Z,19.60
2022-11-29T20:11:32.137Z,20.48
2022-11-29T20:14:01.268Z,17.27
2022-11-29T20:16:30.532Z,19.10
2022-11-29T20:18:58.427Z,18.90
2022-11-29T20:21:31.368Z,17.20
2022-11-29T20:24:03.577Z,18.92
2022-11-29T20:26:34.319Z,19.10
2022-11-29T20:29:02.405Z,16.90
2022-11-29T20:31:30.352Z,19.38
2022-11-29T20:33:57.744Z,18.33
2022-11-29T20:36:40.084Z,18.48
2022-11-29T20:39:22.199Z,18.00
2022-11-29T20:42:39.487Z,16.27
2022-11-29T20:45:09.062Z,21.60
2022-11-29T20:47:53.252Z,17.35
2022-11-29T20:50:24.083Z,16.35
2022-11-29T20:53:22.672Z,17.65
2022-11-29T20:55:49.947Z,18.33
2022-11-29T20:58:18.402Z,17.02
2022-11-29T21:00:46.110Z,17.38
2022-11-29T21:03:17.773Z,17.23
2022-11-29T21:05:44.865Z,17.98
2022-11-29T21:08:14.249Z,18.77
2022-11-29T21:10:41.374Z,17.52
2022-11-29T21:13:10.785Z,19.02
2022-11-29T21:15:37.968Z,17.67
2022-11-29T21:18:14.418Z,18.15
2022-11-29T21:20:43.489Z,19.00
2022-11-29T21:23:16.384Z,19.17
2022-11-29T21:28:15.011Z,19.50
2022-11-29T21:30:43.342Z,18.75
2022-11-29T21:33:11.339Z,17.65
2022-11-29T21:35:40.071Z,18.25
2022-11-29T21:38:13.389Z,17.90
2022-11-29T21:40:40.500Z,17.42
2022-11-29T21:43:07.519Z,18.23
2022-11-29T21:45:34.587Z,17.50
2022-11-29T21:48:01.700Z,17.00
2022-11-29T21:50:28.772Z,17.10
2022-11-29T21:52:56.441Z,17.95
2022-11-29T21:55:30.014Z,17.58
2022-11-29T21:57:59.054Z,18.38
2022-11-29T22:00:26.297Z,23.33
2022-11-29T22:02:53.358Z,17.42
2022-11-29T22:05:20.369Z,26.23
2022-11-29T22:07:47.404Z,19.55
2022-11-29T22:10:14.510Z,16.98
2022-11-29T22:12:51.254Z,16.67
2022-11-29T22:15:24.586Z,17.88
2022-11-29T22:17:56.394Z,18.35
2022-11-29T22:20:23.608Z,18.00
2022-11-29T22:22:54.488Z,17.40
2022-11-29T22:25:24.176Z,16.27
2022-11-29T22:27:51.190Z,17.38
2022-11-29T22:30:18.198Z,16.33
2022-11-29T22:32:45.238Z,17.70
2022-11-29T22:35:12.204Z,17.25
2022-11-29T22:37:39.343Z,16.77
2022-11-29T22:40:07.186Z,16.00
2022-11-29T22:42:34.326Z,17.67
2022-11-29T22:45:02.272Z,18.15
2022-11-29T22:47:29.462Z,17.17
2022-11-29T22:49:56.509Z,17.60
2022-11-29T22:52:23.539Z,17.98
2022-11-29T22:54:50.557Z,17.73
2022-11-29T22:57:17.667Z,16.40
2022-11-29T22:59:44.651Z,17.45
2022-11-29T23:02:11.706Z,19.58
2022-11-29T23:04:38.723Z,21.02
2022-11-29T23:07:05.861Z,17.50
2022-11-29T23:09:32.848Z,17.08
2022-11-29T23:11:59.876Z,16.77
2022-11-29T23:14:26.921Z,16.30
2022-11-29T23:16:54.887Z,15.32
2022-11-29T23:19:21.916Z,16.38
2022-11-29T23:21:49.113Z,15.55
2022-11-29T23:24:16.271Z,16.10
2022-11-29T23:26:47.271Z,16.05
2022-11-29T23:29:17.757Z,15.93
2022-11-29T23:31:44.923Z,15.98
2022-11-29T23:34:12.197Z,15.30
2022-11-29T23:36:39.298Z,15.25
2022-11-29T23:39:06.908Z,15.85
2022-11-29T23:41:35.761Z,15.23
2022-11-29T23:44:06.752Z,15.18
2022-11-29T23:46:35.397Z,15.35
2022-11-29T23:49:02.655Z,16.58
2022-11-29T23:51:29.709Z,15.43
2022-11-29T23:53:56.792Z,16.77
2022-11-29T23:56:23.985Z,15.40
2022-11-29T23:58:51.054Z,15.77
